sensor_id;sensor_type;location;lat;lon;timestamp;P1;durP1;ratioP1;P2;durP2;ratioP2
52590;SDS011;38483;42.620;25.394;2023-02-13T00:00:29;34.00;;;18.97;;
52590;SDS011;38483;42.620;25.394;2023-02-13T00:02:57;32.07;;;19.43;;
52590;SDS011;38483;42.620;25.394;2023-02-13T00:05:24;31.37;;;17.60;;
52590;SDS011;38483;42.620;25.394;2023-02-13T00:07:50;31.27;;;18.17;;
52590;SDS011;38483;42.620;25.394;2023-02-13T00:10:17;32.43;;;19.03;;
52590;SDS011;38483;42.620;25.394;2023-02-13T00:12:44;30.60;;;17.40;;
52590;SDS011;38483;42.620;25.394;2023-02-13T00:15:11;29.17;;;17.20;;
52590;SDS011;38483;42.620;25.394;2023-02-13T00:17:38;27.27;;;17.00;;
52590;SDS011;38483;42.620;25.394;2023-02-13T00:20:07;33.50;;;17.03;;
52590;SDS011;38483;42.620;25.394;2023-02-13T00:22:36;31.53;;;17.13;;
52590;SDS011;38483;42.620;25.394;2023-02-13T00:25:04;31.30;;;17.43;;
52590;SDS011;38483;42.620;25.394;2023-02-13T00:27:32;32.97;;;17.57;;
52590;SDS011;38483;42.620;25.394;2023-02-13T00:30:00;27.97;;;17.67;;
52590;SDS011;38483;42.620;25.394;2023-02-13T00:32:30;30.63;;;18.20;;
52590;SDS011;38483;42.620;25.394;2023-02-13T00:34:57;31.60;;;18.63;;
52590;SDS011;38483;42.620;25.394;2023-02-13T00:37:24;30.47;;;18.17;;
52590;SDS011;38483;42.620;25.394;2023-02-13T00:39:51;31.83;;;17.70;;
52590;SDS011;38483;42.620;25.394;2023-02-13T00:42:19;28.80;;;17.23;;
52590;SDS011;38483;42.620;25.394;2023-02-13T00:44:49;35.23;;;18.27;;
52590;SDS011;38483;42.620;25.394;2023-02-13T00:47:16;30.10;;;17.33;;
52590;SDS011;38483;42.620;25.394;2023-02-13T00:49:43;30.80;;;17.27;;
52590;SDS011;38483;42.620;25.394;2023-02-13T00:52:10;32.57;;;18.23;;
52590;SDS011;38483;42.620;25.394;2023-02-13T00:54:37;33.10;;;18.33;;
52590;SDS011;38483;42.620;25.394;2023-02-13T00:57:04;36.87;;;17.97;;
52590;SDS011;38483;42.620;25.394;2023-02-13T00:59:31;32.40;;;17.80;;
52590;SDS011;38483;42.620;25.394;2023-02-13T01:01:59;33.07;;;18.90;;
52590;SDS011;38483;42.620;25.394;2023-02-13T01:04:26;32.03;;;19.53;;
52590;SDS011;38483;42.620;25.394;2023-02-13T01:06:56;36.40;;;21.37;;
52590;SDS011;38483;42.620;25.394;2023-02-13T01:09:23;37.33;;;19.57;;
52590;SDS011;38483;42.620;25.394;2023-02-13T01:11:51;35.43;;;19.77;;
52590;SDS011;38483;42.620;25.394;2023-02-13T01:14:18;35.97;;;20.17;;
52590;SDS011;38483;42.620;25.394;2023-02-13T01:16:47;33.57;;;20.10;;
52590;SDS011;38483;42.620;25.394;2023-02-13T01:19:14;38.10;;;20.03;;
52590;SDS011;38483;42.620;25.394;2023-02-13T01:21:41;37.23;;;20.50;;
52590;SDS011;38483;42.620;25.394;2023-02-13T01:24:08;38.87;;;21.10;;
52590;SDS011;38483;42.620;25.394;2023-02-13T01:26:35;31.87;;;18.70;;
52590;SDS011;38483;42.620;25.394;2023-02-13T01:29:02;35.60;;;19.63;;
52590;SDS011;38483;42.620;25.394;2023-02-13T01:31:29;32.23;;;18.40;;
52590;SDS011;38483;42.620;25.394;2023-02-13T01:33:56;41.80;;;19.53;;
52590;SDS011;38483;42.620;25.394;2023-02-13T01:36:24;36.60;;;19.37;;
52590;SDS011;38483;42.620;25.394;2023-02-13T01:38:53;31.73;;;18.93;;
52590;SDS011;38483;42.620;25.394;2023-02-13T01:41:23;36.23;;;20.30;;
52590;SDS011;38483;42.620;25.394;2023-02-13T01:43:52;35.40;;;19.70;;
52590;SDS011;38483;42.620;25.394;2023-02-13T01:46:24;29.53;;;18.33;;
52590;SDS011;38483;42.620;25.394;2023-02-13T01:48:59;34.37;;;18.77;;
52590;SDS011;38483;42.620;25.394;2023-02-13T01:51:39;33.97;;;18.87;;
52590;SDS011;38483;42.620;25.394;2023-02-13T01:54:09;33.27;;;18.60;;
52590;SDS011;38483;42.620;25.394;2023-02-13T01:56:47;36.97;;;18.30;;
52590;SDS011;38483;42.620;25.394;2023-02-13T01:59:21;32.83;;;18.33;;
52590;SDS011;38483;42.620;25.394;2023-02-13T02:01:53;36.10;;;19.53;;
52590;SDS011;38483;42.620;25.394;2023-02-13T02:04:25;41.60;;;24.13;;
52590;SDS011;38483;42.620;25.394;2023-02-13T02:06:59;40.27;;;22.40;;
52590;SDS011;38483;42.620;25.394;2023-02-13T02:09:33;36.17;;;21.47;;
52590;SDS011;38483;42.620;25.394;2023-02-13T02:14:43;40.10;;;21.80;;
52590;SDS011;38483;42.620;25.394;2023-02-13T02:17:11;39.77;;;21.77;;
52590;SDS011;38483;42.620;25.394;2023-02-13T02:35:54;35.43;;;18.90;;
52590;SDS011;38483;42.620;25.394;2023-02-13T02:53:25;34.03;;;20.37;;
52590;SDS011;38483;42.620;25.394;2023-02-13T02:55:59;31.60;;;18.00;;
52590;SDS011;38483;42.620;25.394;2023-02-13T02:58:41;28.30;;;17.03;;
52590;SDS011;38483;42.620;25.394;2023-02-13T03:01:32;28.60;;;16.53;;
52590;SDS011;38483;42.620;25.394;2023-02-13T03:07:14;30.40;;;16.73;;
52590;SDS011;38483;42.620;25.394;2023-02-13T03:09:47;26.77;;;16.87;;
52590;SDS011;38483;42.620;25.394;2023-02-13T03:12:38;30.00;;;17.63;;
52590;SDS011;38483;42.620;25.394;2023-02-13T03:15:31;31.87;;;17.93;;
52590;SDS011;38483;42.620;25.394;2023-02-13T03:18:01;29.27;;;17.97;;
52590;SDS011;38483;42.620;25.394;2023-02-13T03:21:01;33.67;;;18.23;;
52590;SDS011;38483;42.620;25.394;2023-02-13T03:23:59;36.73;;;20.33;;
52590;SDS011;38483;42.620;25.394;2023-02-13T03:34:29;36.43;;;20.33;;
52590;SDS011;38483;42.620;25.394;2023-02-13T03:37:26;31.70;;;17.47;;
52590;SDS011;38483;42.620;25.394;2023-02-13T03:40:15;32.37;;;17.27;;
52590;SDS011;38483;42.620;25.394;2023-02-13T03:42:52;31.00;;;16.70;;
52590;SDS011;38483;42.620;25.394;2023-02-13T03:45:29;31.33;;;17.27;;
52590;SDS011;38483;42.620;25.394;2023-02-13T03:48:22;26.87;;;15.87;;
52590;SDS011;38483;42.620;25.394;2023-02-13T03:51:09;29.63;;;15.47;;
52590;SDS011;38483;42.620;25.394;2023-02-13T03:53:39;28.00;;;15.97;;
52590;SDS011;38483;42.620;25.394;2023-02-13T03:56:12;24.27;;;15.17;;
52590;SDS011;38483;42.620;25.394;2023-02-13T03:59:00;27.03;;;15.87;;
52590;SDS011;38483;42.620;25.394;2023-02-13T04:01:45;32.70;;;18.07;;
52590;SDS011;38483;42.620;25.394;2023-02-13T04:07:07;30.60;;;15.93;;
52590;SDS011;38483;42.620;25.394;2023-02-13T04:09:39;27.27;;;14.77;;
52590;SDS011;38483;42.620;25.394;2023-02-13T04:12:11;26.67;;;15.03;;
52590;SDS011;38483;42.620;25.394;2023-02-13T04:14:49;27.57;;;15.50;;
52590;SDS011;38483;42.620;25.394;2023-02-13T04:17:26;25.43;;;15.20;;
52590;SDS011;38483;42.620;25.394;2023-02-13T04:19:59;30.27;;;16.20;;
52590;SDS011;38483;42.620;25.394;2023-02-13T04:22:26;27.07;;;16.40;;
52590;SDS011;38483;42.620;25.394;2023-02-13T04:24:53;27.87;;;16.77;;
52590;SDS011;38483;42.620;25.394;2023-02-13T04:27:20;28.77;;;16.20;;
52590;SDS011;38483;42.620;25.394;2023-02-13T04:29:47;30.00;;;18.17;;
52590;SDS011;38483;42.620;25.394;2023-02-13T04:32:14;30.07;;;17.63;;
52590;SDS011;38483;42.620;25.394;2023-02-13T04:34:42;29.27;;;16.90;;
52590;SDS011;38483;42.620;25.394;2023-02-13T04:37:09;34.20;;;19.33;;
52590;SDS011;38483;42.620;25.394;2023-02-13T04:39:36;33.63;;;20.00;;
52590;SDS011;38483;42.620;25.394;2023-02-13T04:42:04;32.37;;;18.30;;
52590;SDS011;38483;42.620;25.394;2023-02-13T04:44:30;31.40;;;18.60;;
52590;SDS011;38483;42.620;25.394;2023-02-13T04:46:57;48.53;;;23.90;;
52590;SDS011;38483;42.620;25.394;2023-02-13T04:49:24;35.93;;;20.27;;
52590;SDS011;38483;42.620;25.394;2023-02-13T04:51:51;40.57;;;21.57;;
52590;SDS011;38483;42.620;25.394;2023-02-13T04:54:18;48.53;;;23.70;;
52590;SDS011;38483;42.620;25.394;2023-02-13T04:56:45;47.17;;;24.23;;
52590;SDS011;38483;42.620;25.394;2023-02-13T04:59:12;42.43;;;23.27;;
52590;SDS011;38483;42.620;25.394;2023-02-13T05:01:39;41.80;;;23.83;;
52590;SDS011;38483;42.620;25.394;2023-02-13T05:04:06;44.10;;;23.13;;
52590;SDS011;38483;42.620;25.394;2023-02-13T05:06:33;48.20;;;25.97;;
52590;SDS011;38483;42.620;25.394;2023-02-13T05:09:00;45.50;;;24.87;;
52590;SDS011;38483;42.620;25.394;2023-02-13T05:11:27;42.60;;;23.73;;
52590;SDS011;38483;42.620;25.394;2023-02-13T05:13:54;51.13;;;25.57;;
52590;SDS011;38483;42.620;25.394;2023-02-13T05:16:21;47.97;;;25.63;;
52590;SDS011;38483;42.620;25.394;2023-02-13T05:18:48;49.57;;;27.27;;
52590;SDS011;38483;42.620;25.394;2023-02-13T05:21:15;52.43;;;27.03;;
52590;SDS011;38483;42.620;25.394;2023-02-13T05:24:00;51.90;;;26.97;;
52590;SDS011;38483;42.620;25.394;2023-02-13T05:26:27;49.33;;;26.50;;
52590;SDS011;38483;42.620;25.394;2023-02-13T05:28:54;49.83;;;26.73;;
52590;SDS011;38483;42.620;25.394;2023-02-13T05:31:40;42.27;;;24.33;;
52590;SDS011;38483;42.620;25.394;2023-02-13T05:34:07;42.27;;;23.53;;
52590;SDS011;38483;42.620;25.394;2023-02-13T05:36:34;42.40;;;24.53;;
52590;SDS011;38483;42.620;25.394;2023-02-13T05:39:01;43.33;;;24.43;;
52590;SDS011;38483;42.620;25.394;2023-02-13T05:41:28;43.47;;;23.70;;
52590;SDS011;38483;42.620;25.394;2023-02-13T05:43:55;42.13;;;23.70;;
52590;SDS011;38483;42.620;25.394;2023-02-13T05:46:22;42.83;;;24.07;;
52590;SDS011;38483;42.620;25.394;2023-02-13T05:48:50;55.13;;;27.87;;
52590;SDS011;38483;42.620;25.394;2023-02-13T05:51:19;51.37;;;25.23;;
52590;SDS011;38483;42.620;25.394;2023-02-13T05:53:48;45.90;;;24.53;;
52590;SDS011;38483;42.620;25.394;2023-02-13T05:56:15;41.37;;;22.63;;
52590;SDS011;38483;42.620;25.394;2023-02-13T05:58:42;36.53;;;20.40;;
52590;SDS011;38483;42.620;25.394;2023-02-13T06:01:10;42.33;;;22.33;;
52590;SDS011;38483;42.620;25.394;2023-02-13T06:03:38;37.17;;;20.50;;
52590;SDS011;38483;42.620;25.394;2023-02-13T06:06:08;41.10;;;20.77;;
52590;SDS011;38483;42.620;25.394;2023-02-13T06:08:35;42.93;;;22.40;;
52590;SDS011;38483;42.620;25.394;2023-02-13T06:11:02;53.70;;;25.93;;
52590;SDS011;38483;42.620;25.394;2023-02-13T06:13:29;51.03;;;25.87;;
52590;SDS011;38483;42.620;25.394;2023-02-13T06:15:56;38.53;;;23.30;;
52590;SDS011;38483;42.620;25.394;2023-02-13T06:18:23;37.27;;;23.13;;
52590;SDS011;38483;42.620;25.394;2023-02-13T06:20:50;38.10;;;23.53;;
52590;SDS011;38483;42.620;25.394;2023-02-13T06:23:17;39.33;;;22.87;;
52590;SDS011;38483;42.620;25.394;2023-02-13T06:25:44;42.63;;;22.87;;
52590;SDS011;38483;42.620;25.394;2023-02-13T06:28:11;50.53;;;25.27;;
52590;SDS011;38483;42.620;25.394;2023-02-13T06:30:38;40.80;;;22.97;;
52590;SDS011;38483;42.620;25.394;2023-02-13T06:33:05;43.53;;;22.10;;
52590;SDS011;38483;42.620;25.394;2023-02-13T06:35:32;37.87;;;21.17;;
52590;SDS011;38483;42.620;25.394;2023-02-13T06:37:59;35.77;;;19.37;;
52590;SDS011;38483;42.620;25.394;2023-02-13T06:40:26;40.10;;;21.20;;
52590;SDS011;38483;42.620;25.394;2023-02-13T06:42:53;45.07;;;24.33;;
52590;SDS011;38483;42.620;25.394;2023-02-13T06:45:20;39.83;;;22.67;;
52590;SDS011;38483;42.620;25.394;2023-02-13T06:47:47;40.53;;;22.53;;
52590;SDS011;38483;42.620;25.394;2023-02-13T06:50:15;38.63;;;21.67;;
52590;SDS011;38483;42.620;25.394;2023-02-13T06:52:46;40.53;;;22.73;;
52590;SDS011;38483;42.620;25.394;2023-02-13T06:55:14;44.33;;;25.07;;
52590;SDS011;38483;42.620;25.394;2023-02-13T06:57:42;45.13;;;24.63;;
52590;SDS011;38483;42.620;25.394;2023-02-13T07:00:11;44.17;;;24.33;;
52590;SDS011;38483;42.620;25.394;2023-02-13T07:02:39;44.33;;;23.87;;
52590;SDS011;38483;42.620;25.394;2023-02-13T07:05:08;44.17;;;23.70;;
52590;SDS011;38483;42.620;25.394;2023-02-13T07:07:36;47.17;;;26.87;;
52590;SDS011;38483;42.620;25.394;2023-02-13T07:10:05;49.77;;;26.33;;
52590;SDS011;38483;42.620;25.394;2023-02-13T07:12:34;42.23;;;24.07;;
52590;SDS011;38483;42.620;25.394;2023-02-13T07:15:02;44.83;;;25.37;;
52590;SDS011;38483;42.620;25.394;2023-02-13T07:17:30;39.63;;;23.10;;
52590;SDS011;38483;42.620;25.394;2023-02-13T07:19:57;41.90;;;23.57;;
52590;SDS011;38483;42.620;25.394;2023-02-13T07:22:24;50.47;;;28.90;;
52590;SDS011;38483;42.620;25.394;2023-02-13T07:24:51;51.03;;;26.67;;
52590;SDS011;38483;42.620;25.394;2023-02-13T07:27:18;47.47;;;24.07;;
52590;SDS011;38483;42.620;25.394;2023-02-13T07:29:45;44.97;;;24.70;;
52590;SDS011;38483;42.620;25.394;2023-02-13T07:32:12;38.83;;;23.10;;
52590;SDS011;38483;42.620;25.394;2023-02-13T07:34:39;42.43;;;24.23;;
52590;SDS011;38483;42.620;25.394;2023-02-13T07:37:26;38.33;;;23.83;;
52590;SDS011;38483;42.620;25.394;2023-02-13T07:39:54;42.47;;;23.63;;
52590;SDS011;38483;42.620;25.394;2023-02-13T07:42:23;35.10;;;20.67;;
52590;SDS011;38483;42.620;25.394;2023-02-13T07:44:50;33.70;;;21.30;;
52590;SDS011;38483;42.620;25.394;2023-02-13T07:47:17;42.40;;;24.53;;
52590;SDS011;38483;42.620;25.394;2023-02-13T07:49:45;38.53;;;22.47;;
52590;SDS011;38483;42.620;25.394;2023-02-13T07:52:13;43.60;;;22.33;;
52590;SDS011;38483;42.620;25.394;2023-02-13T07:54:40;38.80;;;21.97;;
52590;SDS011;38483;42.620;25.394;2023-02-13T07:57:14;35.87;;;21.73;;
52590;SDS011;38483;42.620;25.394;2023-02-13T07:59:41;39.70;;;23.03;;
52590;SDS011;38483;42.620;25.394;2023-02-13T08:02:12;36.03;;;21.60;;
52590;SDS011;38483;42.620;25.394;2023-02-13T08:04:42;34.13;;;20.67;;
52590;SDS011;38483;42.620;25.394;2023-02-13T08:07:12;36.67;;;21.23;;
52590;SDS011;38483;42.620;25.394;2023-02-13T08:09:42;38.07;;;21.40;;
52590;SDS011;38483;42.620;25.394;2023-02-13T08:12:29;34.43;;;20.03;;
52590;SDS011;38483;42.620;25.394;2023-02-13T08:14:58;34.70;;;21.33;;
52590;SDS011;38483;42.620;25.394;2023-02-13T08:17:25;33.97;;;19.73;;
52590;SDS011;38483;42.620;25.394;2023-02-13T08:19:52;35.73;;;21.43;;
52590;SDS011;38483;42.620;25.394;2023-02-13T08:22:19;37.17;;;21.57;;
52590;SDS011;38483;42.620;25.394;2023-02-13T08:24:46;34.27;;;20.37;;
52590;SDS011;38483;42.620;25.394;2023-02-13T08:27:13;32.77;;;20.67;;
52590;SDS011;38483;42.620;25.394;2023-02-13T08:29:40;34.93;;;22.73;;
52590;SDS011;38483;42.620;25.394;2023-02-13T08:32:07;38.93;;;20.87;;
52590;SDS011;38483;42.620;25.394;2023-02-13T08:34:35;32.53;;;18.73;;
52590;SDS011;38483;42.620;25.394;2023-02-13T08:37:02;37.17;;;22.13;;
52590;SDS011;38483;42.620;25.394;2023-02-13T08:39:29;32.67;;;18.27;;
52590;SDS011;38483;42.620;25.394;2023-02-13T08:41:56;32.30;;;18.20;;
52590;SDS011;38483;42.620;25.394;2023-02-13T08:44:23;29.70;;;17.23;;
52590;SDS011;38483;42.620;25.394;2023-02-13T08:46:51;28.10;;;16.10;;
52590;SDS011;38483;42.620;25.394;2023-02-13T08:49:18;28.63;;;16.97;;
52590;SDS011;38483;42.620;25.394;2023-02-13T08:51:45;31.77;;;19.60;;
52590;SDS011;38483;42.620;25.394;2023-02-13T08:54:11;26.83;;;16.43;;
52590;SDS011;38483;42.620;25.394;2023-02-13T08:56:38;28.33;;;15.70;;
52590;SDS011;38483;42.620;25.394;2023-02-13T08:59:07;30.63;;;16.43;;
52590;SDS011;38483;42.620;25.394;2023-02-13T09:01:34;29.17;;;14.97;;
52590;SDS011;38483;42.620;25.394;2023-02-13T09:04:01;30.90;;;15.30;;
52590;SDS011;38483;42.620;25.394;2023-02-13T09:06:29;25.80;;;15.50;;
52590;SDS011;38483;42.620;25.394;2023-02-13T09:08:56;25.83;;;14.43;;
52590;SDS011;38483;42.620;25.394;2023-02-13T09:11:24;27.07;;;15.37;;
52590;SDS011;38483;42.620;25.394;2023-02-13T09:13:52;20.50;;;13.30;;
52590;SDS011;38483;42.620;25.394;2023-02-13T09:16:21;26.77;;;15.37;;
52590;SDS011;38483;42.620;25.394;2023-02-13T09:18:49;25.33;;;15.23;;
52590;SDS011;38483;42.620;25.394;2023-02-13T09:21:17;28.37;;;15.27;;
52590;SDS011;38483;42.620;25.394;2023-02-13T09:23:46;26.37;;;14.80;;
52590;SDS011;38483;42.620;25.394;2023-02-13T09:26:13;28.60;;;14.87;;
52590;SDS011;38483;42.620;25.394;2023-02-13T09:28:41;22.00;;;14.13;;
52590;SDS011;38483;42.620;25.394;2023-02-13T09:31:13;23.43;;;14.30;;
52590;SDS011;38483;42.620;25.394;2023-02-13T09:33:43;21.17;;;12.70;;
52590;SDS011;38483;42.620;25.394;2023-02-13T09:36:13;21.93;;;13.47;;
52590;SDS011;38483;42.620;25.394;2023-02-13T09:38:41;22.13;;;13.37;;
52590;SDS011;38483;42.620;25.394;2023-02-13T09:41:22;25.03;;;14.37;;
52590;SDS011;38483;42.620;25.394;2023-02-13T09:46:38;24.90;;;14.13;;
52590;SDS011;38483;42.620;25.394;2023-02-13T09:49:07;29.67;;;13.40;;
52590;SDS011;38483;42.620;25.394;2023-02-13T09:51:39;28.20;;;17.43;;
52590;SDS011;38483;42.620;25.394;2023-02-13T09:54:11;24.13;;;15.47;;
52590;SDS011;38483;42.620;25.394;2023-02-13T09:56:54;24.70;;;15.17;;
52590;SDS011;38483;42.620;25.394;2023-02-13T10:10:40;24.07;;;13.87;;
52590;SDS011;38483;42.620;25.394;2023-02-13T10:13:35;21.17;;;14.10;;
52590;SDS011;38483;42.620;25.394;2023-02-13T10:16:17;29.27;;;14.67;;
52590;SDS011;38483;42.620;25.394;2023-02-13T10:21:40;24.50;;;14.43;;
52590;SDS011;38483;42.620;25.394;2023-02-13T10:35:49;30.13;;;16.07;;
52590;SDS011;38483;42.620;25.394;2023-02-13T10:38:23;28.00;;;14.10;;
52590;SDS011;38483;42.620;25.394;2023-02-13T10:46:29;26.87;;;14.60;;
52590;SDS011;38483;42.620;25.394;2023-02-13T10:49:11;25.33;;;14.10;;
52590;SDS011;38483;42.620;25.394;2023-02-13T10:58:19;29.60;;;14.37;;
52590;SDS011;38483;42.620;25.394;2023-02-13T11:03:23;22.07;;;12.83;;
52590;SDS011;38483;42.620;25.394;2023-02-13T11:05:52;19.73;;;11.87;;
52590;SDS011;38483;42.620;25.394;2023-02-13T11:08:34;24.97;;;12.03;;
52590;SDS011;38483;42.620;25.394;2023-02-13T11:14:07;18.67;;;12.93;;
52590;SDS011;38483;42.620;25.394;2023-02-13T11:21:53;21.20;;;13.17;;
52590;SDS011;38483;42.620;25.394;2023-02-13T11:24:25;21.20;;;11.57;;
52590;SDS011;38483;42.620;25.394;2023-02-13T11:26:58;21.37;;;12.27;;
52590;SDS011;38483;42.620;25.394;2023-02-13T11:29:35;21.50;;;12.70;;
52590;SDS011;38483;42.620;25.394;2023-02-13T11:34:33;17.43;;;10.83;;
52590;SDS011;38483;42.620;25.394;2023-02-13T11:37:12;22.57;;;12.20;;
52590;SDS011;38483;42.620;25.394;2023-02-13T11:39:44;19.33;;;11.57;;
52590;SDS011;38483;42.620;25.394;2023-02-13T11:42:18;15.87;;;11.60;;
52590;SDS011;38483;42.620;25.394;2023-02-13T11:44:52;21.80;;;13.20;;
52590;SDS011;38483;42.620;25.394;2023-02-13T11:47:31;19.50;;;12.37;;
52590;SDS011;38483;42.620;25.394;2023-02-13T11:50:03;22.77;;;13.33;;
52590;SDS011;38483;42.620;25.394;2023-02-13T11:52:33;19.57;;;12.30;;
52590;SDS011;38483;42.620;25.394;2023-02-13T11:55:03;26.07;;;14.43;;
52590;SDS011;38483;42.620;25.394;2023-02-13T11:58:02;19.00;;;12.20;;
52590;SDS011;38483;42.620;25.394;2023-02-13T12:00:50;20.70;;;12.77;;
52590;SDS011;38483;42.620;25.394;2023-02-13T12:03:56;22.40;;;12.70;;
52590;SDS011;38483;42.620;25.394;2023-02-13T12:06:28;22.23;;;12.23;;
52590;SDS011;38483;42.620;25.394;2023-02-13T12:08:55;21.17;;;11.93;;
52590;SDS011;38483;42.620;25.394;2023-02-13T12:11:38;16.30;;;10.50;;
52590;SDS011;38483;42.620;25.394;2023-02-13T12:14:25;21.87;;;12.40;;
52590;SDS011;38483;42.620;25.394;2023-02-13T12:19:57;20.03;;;10.93;;
52590;SDS011;38483;42.620;25.394;2023-02-13T12:31:27;15.83;;;9.47;;
52590;SDS011;38483;42.620;25.394;2023-02-13T12:34:20;21.50;;;11.20;;
52590;SDS011;38483;42.620;25.394;2023-02-13T12:39:36;14.17;;;8.97;;
52590;SDS011;38483;42.620;25.394;2023-02-13T12:50:28;18.07;;;9.83;;
52590;SDS011;38483;42.620;25.394;2023-02-13T12:58:45;18.93;;;8.57;;
52590;SDS011;38483;42.620;25.394;2023-02-13T13:01:53;13.33;;;8.70;;
52590;SDS011;38483;42.620;25.394;2023-02-13T13:10:36;13.87;;;8.20;;
52590;SDS011;38483;42.620;25.394;2023-02-13T13:13:12;11.43;;;7.57;;
52590;SDS011;38483;42.620;25.394;2023-02-13T13:27:03;14.50;;;8.33;;
52590;SDS011;38483;42.620;25.394;2023-02-13T13:29:44;9.87;;;7.17;;
52590;SDS011;38483;42.620;25.394;2023-02-13T13:32:17;16.57;;;7.87;;
52590;SDS011;38483;42.620;25.394;2023-02-13T13:34:47;10.70;;;7.20;;
52590;SDS011;38483;42.620;25.394;2023-02-13T13:40:20;11.87;;;8.50;;
52590;SDS011;38483;42.620;25.394;2023-02-13T13:51:15;8.67;;;6.20;;
52590;SDS011;38483;42.620;25.394;2023-02-13T13:56:48;12.03;;;7.77;;
52590;SDS011;38483;42.620;25.394;2023-02-13T13:59:24;10.50;;;7.13;;
52590;SDS011;38483;42.620;25.394;2023-02-13T14:07:33;11.47;;;7.27;;
52590;SDS011;38483;42.620;25.394;2023-02-13T14:23:15;15.73;;;9.90;;
52590;SDS011;38483;42.620;25.394;2023-02-13T14:25:49;15.97;;;9.90;;
52590;SDS011;38483;42.620;25.394;2023-02-13T14:28:35;20.47;;;11.87;;
52590;SDS011;38483;42.620;25.394;2023-02-13T14:31:06;14.13;;;9.10;;
52590;SDS011;38483;42.620;25.394;2023-02-13T14:33:42;13.20;;;8.77;;
52590;SDS011;38483;42.620;25.394;2023-02-13T14:36:19;17.37;;;9.90;;
52590;SDS011;38483;42.620;25.394;2023-02-13T14:38:59;13.40;;;8.30;;
52590;SDS011;38483;42.620;25.394;2023-02-13T14:44:30;15.53;;;9.10;;
52590;SDS011;38483;42.620;25.394;2023-02-13T14:47:30;17.10;;;9.40;;
52590;SDS011;38483;42.620;25.394;2023-02-13T14:50:02;17.50;;;10.40;;
52590;SDS011;38483;42.620;25.394;2023-02-13T14:52:36;15.50;;;8.97;;
52590;SDS011;38483;42.620;25.394;2023-02-13T14:58:05;16.37;;;10.33;;
52590;SDS011;38483;42.620;25.394;2023-02-13T15:06:38;11.83;;;8.10;;
52590;SDS011;38483;42.620;25.394;2023-02-13T15:09:18;13.67;;;10.13;;
52590;SDS011;38483;42.620;25.394;2023-02-13T15:14:53;16.73;;;11.23;;
52590;SDS011;38483;42.620;25.394;2023-02-13T15:17:39;17.77;;;10.13;;
52590;SDS011;38483;42.620;25.394;2023-02-13T15:20:07;17.90;;;8.80;;
52590;SDS011;38483;42.620;25.394;2023-02-13T15:22:50;18.47;;;11.10;;
52590;SDS011;38483;42.620;25.394;2023-02-13T15:27:57;20.93;;;12.50;;
52590;SDS011;38483;42.620;25.394;2023-02-13T15:30:26;23.40;;;14.73;;
52590;SDS011;38483;42.620;25.394;2023-02-13T15:32:59;24.27;;;15.00;;
52590;SDS011;38483;42.620;25.394;2023-02-13T15:35:28;21.57;;;13.63;;
52590;SDS011;38483;42.620;25.394;2023-02-13T15:38:15;18.43;;;12.60;;
52590;SDS011;38483;42.620;25.394;2023-02-13T15:40:46;28.43;;;16.13;;
52590;SDS011;38483;42.620;25.394;2023-02-13T15:43:21;29.63;;;18.40;;
52590;SDS011;38483;42.620;25.394;2023-02-13T15:45:53;27.07;;;16.57;;
52590;SDS011;38483;42.620;25.394;2023-02-13T15:48:24;24.53;;;15.27;;
52590;SDS011;38483;42.620;25.394;2023-02-13T15:50:51;23.17;;;15.63;;
52590;SDS011;38483;42.620;25.394;2023-02-13T15:53:18;21.50;;;13.77;;
52590;SDS011;38483;42.620;25.394;2023-02-13T15:55:58;26.83;;;15.10;;
52590;SDS011;38483;42.620;25.394;2023-02-13T15:58:29;18.37;;;11.53;;
52590;SDS011;38483;42.620;25.394;2023-02-13T16:01:16;21.80;;;12.47;;
52590;SDS011;38483;42.620;25.394;2023-02-13T16:03:44;19.80;;;11.83;;
52590;SDS011;38483;42.620;25.394;2023-02-13T16:06:14;20.63;;;14.17;;
52590;SDS011;38483;42.620;25.394;2023-02-13T16:08:43;23.37;;;14.53;;
52590;SDS011;38483;42.620;25.394;2023-02-13T16:11:39;27.97;;;16.13;;
52590;SDS011;38483;42.620;25.394;2023-02-13T16:14:20;27.73;;;17.47;;
52590;SDS011;38483;42.620;25.394;2023-02-13T16:16:52;28.23;;;16.37;;
52590;SDS011;38483;42.620;25.394;2023-02-13T16:19:29;33.47;;;18.87;;
52590;SDS011;38483;42.620;25.394;2023-02-13T16:22:01;33.57;;;19.07;;
52590;SDS011;38483;42.620;25.394;2023-02-13T16:24:43;29.50;;;17.33;;
52590;SDS011;38483;42.620;25.394;2023-02-13T16:27:14;32.53;;;17.90;;
52590;SDS011;38483;42.620;25.394;2023-02-13T16:29:44;20.77;;;12.90;;
52590;SDS011;38483;42.620;25.394;2023-02-13T16:32:17;27.67;;;16.10;;
52590;SDS011;38483;42.620;25.394;2023-02-13T16:34:52;21.03;;;12.90;;
52590;SDS011;38483;42.620;25.394;2023-02-13T16:37:30;22.10;;;13.40;;
52590;SDS011;38483;42.620;25.394;2023-02-13T16:46:12;23.33;;;16.30;;
52590;SDS011;38483;42.620;25.394;2023-02-13T16:54:03;36.93;;;21.20;;
52590;SDS011;38483;42.620;25.394;2023-02-13T16:56:40;44.00;;;21.60;;
52590;SDS011;38483;42.620;25.394;2023-02-13T17:02:02;44.93;;;25.10;;
52590;SDS011;38483;42.620;25.394;2023-02-13T17:07:16;46.40;;;25.53;;
52590;SDS011;38483;42.620;25.394;2023-02-13T17:10:01;45.47;;;25.27;;
52590;SDS011;38483;42.620;25.394;2023-02-13T17:12:30;48.37;;;23.23;;
52590;SDS011;38483;42.620;25.394;2023-02-13T17:15:03;44.33;;;22.03;;
52590;SDS011;38483;42.620;25.394;2023-02-13T17:17:31;52.23;;;29.47;;
52590;SDS011;38483;42.620;25.394;2023-02-13T17:19:58;60.40;;;35.53;;
52590;SDS011;38483;42.620;25.394;2023-02-13T17:24:59;75.07;;;36.73;;
52590;SDS011;38483;42.620;25.394;2023-02-13T17:27:29;71.63;;;41.57;;
52590;SDS011;38483;42.620;25.394;2023-02-13T17:29:56;70.00;;;35.90;;
52590;SDS011;38483;42.620;25.394;2023-02-13T17:32:24;71.53;;;36.30;;
52590;SDS011;38483;42.620;25.394;2023-02-13T17:34:52;64.07;;;35.83;;
52590;SDS011;38483;42.620;25.394;2023-02-13T17:37:23;75.27;;;40.77;;
52590;SDS011;38483;42.620;25.394;2023-02-13T17:39:51;76.03;;;38.77;;
52590;SDS011;38483;42.620;25.394;2023-02-13T17:42:21;68.93;;;36.93;;
52590;SDS011;38483;42.620;25.394;2023-02-13T17:44:51;78.27;;;41.33;;
52590;SDS011;38483;42.620;25.394;2023-02-13T17:47:19;70.57;;;40.13;;
52590;SDS011;38483;42.620;25.394;2023-02-13T17:49:47;69.57;;;39.80;;
52590;SDS011;38483;42.620;25.394;2023-02-13T17:52:16;79.63;;;39.23;;
52590;SDS011;38483;42.620;25.394;2023-02-13T17:54:47;74.03;;;41.40;;
52590;SDS011;38483;42.620;25.394;2023-02-13T17:57:16;71.30;;;40.47;;
52590;SDS011;38483;42.620;25.394;2023-02-13T17:59:46;79.27;;;45.03;;
52590;SDS011;38483;42.620;25.394;2023-02-13T18:04:40;59.10;;;33.20;;
52590;SDS011;38483;42.620;25.394;2023-02-13T18:07:08;63.87;;;32.00;;
52590;SDS011;38483;42.620;25.394;2023-02-13T18:09:37;59.43;;;33.60;;
52590;SDS011;38483;42.620;25.394;2023-02-13T18:12:06;55.80;;;33.40;;
52590;SDS011;38483;42.620;25.394;2023-02-13T18:14:33;52.87;;;31.50;;
52590;SDS011;38483;42.620;25.394;2023-02-13T18:17:00;51.67;;;29.27;;